Time;durP1;ratioP1;P1;durP2;ratioP2;P2;SDS_P1;SDS_P2;PMS_P1;PMS_P2;Temp;Humidity;BMP_temperature;BMP_pressure;BME280_temperature;BME280_humidity;BME280_pressure;Samples;Min_cycle;Max_cycle;Signal;HPM_P1;HPM_P2
2022/06/11 00:02:25;;;;;;;4;2.7;;;;;;;;;;;;;
2022/06/11 00:04:52;;;;;;;3;2.7;;;;;;;;;;;;;
2022/06/11 00:07:17;;;;;;;3.2;2.7;;;;;;;;;;;;;
2022/06/11 00:10:06;;;;;;;5;2.7;;;;;;;;;;;;;
2022/06/11 00:12:22;;;;;;;3.6;3;;;;;;;;;;;;;
2022/06/11 00:14:47;;;;;;;3.5;3.2;;;;;;;;;;;;;
2022/06/11 00:17:13;;;;;;;3.1;2.8;;;;;;;;;;;;;
2022/06/11 00:19:38;;;;;;;3.8;2.6;;;;;;;;;;;;;
2022/06/11 00:22:04;;;;;;;3.2;2.9;;;;;;;;;;;;;
2022/06/11 00:24:29;;;;;;;3.5;2.9;;;;;;;;;;;;;
2022/06/11 00:26:54;;;;;;;3.5;2.8;;;;;;;;;;;;;
2022/06/11 00:29:19;;;;;;;4.5;3;;;;;;;;;;;;;
2022/06/11 00:31:45;;;;;;;3.7;3;;;;;;;;;;;;;
2022/06/11 00:34:11;;;;;;;3.3;3;;;;;;;;;;;;;
2022/06/11 00:36:36;;;;;;;3.9;2.8;;;;;;;;;;;;;
2022/06/11 00:39:15;;;;;;;6.2;3.5;;;;;;;;;;;;;
2022/06/11 00:41:40;;;;;;;4.8;3.2;;;;;;;;;;;;;
2022/06/11 00:44:05;;;;;;;5.6;3.2;;;;;;;;;;;;;
2022/06/11 00:46:30;;;;;;;3.9;2.8;;;;;;;;;;;;;
2022/06/11 00:48:55;;;;;;;3.3;3;;;;;;;;;;;;;
2022/06/11 00:51:22;;;;;;;3.2;2.9;;;;;;;;;;;;;
2022/06/11 00:53:47;;;;;;;3.6;2.9;;;;;;;;;;;;;
2022/06/11 00:56:12;;;;;;;3.2;2.6;;;;;;;;;;;;;
2022/06/11 00:58:38;;;;;;;3;2.7;;;;;;;;;;;;;
2022/06/11 01:01:03;;;;;;;3.4;2.6;;;;;;;;;;;;;
2022/06/11 01:03:28;;;;;;;3.4;2.8;;;;;;;;;;;;;
2022/06/11 01:05:53;;;;;;;5.3;2.8;;;;;;;;;;;;;
2022/06/11 01:08:18;;;;;;;3.7;2.9;;;;;;;;;;;;;
2022/06/11 01:10:43;;;;;;;3.7;2.9;;;;;;;;;;;;;
2022/06/11 01:15:46;;;;;;;3.7;2.5;;;;;;;;;;;;;
2022/06/11 01:18:11;;;;;;;3.5;3;;;;;;;;;;;;;
2022/06/11 01:20:39;;;;;;;3.8;2.8;;;;;;;;;;;;;
2022/06/11 01:23:02;;;;;;;4;3;;;;;;;;;;;;;
2022/06/11 01:25:27;;;;;;;3.7;2.7;;;;;;;;;;;;;
2022/06/11 01:27:52;;;;;;;3.1;2.7;;;;;;;;;;;;;
2022/06/11 01:30:17;;;;;;;3;2.5;;;;;;;;;;;;;
2022/06/11 01:32:43;;;;;;;4.1;3.1;;;;;;;;;;;;;
2022/06/11 01:35:08;;;;;;;3.2;2.9;;;;;;;;;;;;;
2022/06/11 01:37:34;;;;;;;3.1;2.8;;;;;;;;;;;;;
2022/06/11 01:39:59;;;;;;;3.8;3;;;;;;;;;;;;;
2022/06/11 01:42:24;;;;;;;3.1;2.8;;;;;;;;;;;;;
2022/06/11 01:44:49;;;;;;;3.4;3;;;;;;;;;;;;;
2022/06/11 01:47:14;;;;;;;3.7;2.7;;;;;;;;;;;;;
2022/06/11 01:49:57;;;;;;;4.2;2.9;;;;;;;;;;;;;
2022/06/11 01:52:05;;;;;;;4;3;;;;;;;;;;;;;
2022/06/11 01:54:30;;;;;;;4.8;3.1;;;;;;;;;;;;;
2022/06/11 01:56:56;;;;;;;4.8;3.5;;;;;;;;;;;;;
2022/06/11 01:59:21;;;;;;;5.6;3.6;;;;;;;;;;;;;
2022/06/11 02:01:46;;;;;;;4.5;3.6;;;;;;;;;;;;;
2022/06/11 02:04:11;;;;;;;7.3;3.8;;;;;;;;;;;;;
2022/06/11 02:06:36;;;;;;;5.6;3.1;;;;;;;;;;;;;
2022/06/11 02:09:02;;;;;;;3.7;3.2;;;;;;;;;;;;;
2022/06/11 02:11:29;;;;;;;4.6;3;;;;;;;;;;;;;
2022/06/11 02:13:53;;;;;;;5;3.7;;;;;;;;;;;;;
2022/06/11 02:16:18;;;;;;;3.4;2.8;;;;;;;;;;;;;
2022/06/11 02:18:44;;;;;;;3.5;2.7;;;;;;;;;;;;;
2022/06/11 02:21:09;;;;;;;4.3;2.8;;;;;;;;;;;;;
2022/06/11 02:23:36;;;;;;;3.4;2.9;;;;;;;;;;;;;
2022/06/11 02:26:01;;;;;;;5.7;3.5;;;;;;;;;;;;;
2022/06/11 02:28:28;;;;;;;3.1;2.8;;;;;;;;;;;;;
2022/06/11 02:30:52;;;;;;;3.2;2.9;;;;;;;;;;;;;
2022/06/11 02:33:17;;;;;;;5.9;3.3;;;;;;;;;;;;;
2022/06/11 02:35:42;;;;;;;3;2.7;;;;;;;;;;;;;
2022/06/11 02:38:07;;;;;;;2.9;2.6;;;;;;;;;;;;;
2022/06/11 02:40:32;;;;;;;3.3;2.5;;;;;;;;;;;;;
2022/06/11 02:42:58;;;;;;;3.5;3;;;;;;;;;;;;;
2022/06/11 02:45:23;;;;;;;4;3.6;;;;;;;;;;;;;
2022/06/11 02:47:50;;;;;;;3.7;2.7;;;;;;;;;;;;;
2022/06/11 02:50:15;;;;;;;4.2;3.1;;;;;;;;;;;;;
2022/06/11 02:52:41;;;;;;;4;3;;;;;;;;;;;;;
2022/06/11 02:55:07;;;;;;;4.8;2.8;;;;;;;;;;;;;
2022/06/11 02:57:33;;;;;;;3.2;2.9;;;;;;;;;;;;;
2022/06/11 02:59:57;;;;;;;3.3;3;;;;;;;;;;;;;
2022/06/11 03:02:22;;;;;;;3.3;2.9;;;;;;;;;;;;;
2022/06/11 03:04:48;;;;;;;3.5;2.8;;;;;;;;;;;;;
2022/06/11 03:07:13;;;;;;;4.1;3.1;;;;;;;;;;;;;
2022/06/11 03:09:39;;;;;;;4.6;2.8;;;;;;;;;;;;;
2022/06/11 03:12:04;;;;;;;3.7;2.9;;;;;;;;;;;;;
2022/06/11 03:14:29;;;;;;;3.4;3;;;;;;;;;;;;;
2022/06/11 03:16:54;;;;;;;6.1;3;;;;;;;;;;;;;
2022/06/11 03:19:20;;;;;;;4.2;2.9;;;;;;;;;;;;;
2022/06/11 03:21:46;;;;;;;3.5;2.8;;;;;;;;;;;;;
2022/06/11 03:24:09;;;;;;;4.5;3.3;;;;;;;;;;;;;
2022/06/11 03:26:34;;;;;;;3.3;3;;;;;;;;;;;;;
2022/06/11 03:29:00;;;;;;;3.4;3;;;;;;;;;;;;;
2022/06/11 03:31:25;;;;;;;3.7;2.9;;;;;;;;;;;;;
2022/06/11 03:33:50;;;;;;;2.9;2.6;;;;;;;;;;;;;
2022/06/11 03:36:15;;;;;;;3.6;2.6;;;;;;;;;;;;;
2022/06/11 03:38:41;;;;;;;3.7;3.1;;;;;;;;;;;;;
2022/06/11 03:41:06;;;;;;;3.7;3.1;;;;;;;;;;;;;
2022/06/11 03:43:32;;;;;;;8.2;3.4;;;;;;;;;;;;;
2022/06/11 03:45:58;;;;;;;4.1;3.2;;;;;;;;;;;;;
2022/06/11 03:48:24;;;;;;;4.7;3;;;;;;;;;;;;;
2022/06/11 03:50:49;;;;;;;4.6;3;;;;;;;;;;;;;
2022/06/11 03:53:16;;;;;;;4.9;3.1;;;;;;;;;;;;;
2022/06/11 03:55:41;;;;;;;6.1;2.8;;;;;;;;;;;;;
2022/06/11 03:58:07;;;;;;;4.9;2.9;;;;;;;;;;;;;
2022/06/11 04:02:34;;;;;;;3.5;3;;;;;;;9.82;95.06543;945.2184;;;;
2022/06/11 04:05:02;;;;;;;3.5;2.8;;;;;;;9.81;94.72168;945.2029;;;;
2022/06/11 04:07:27;;;;;;;6;2.9;;;;;;;9.84;94.78613;945.2212;;;;
2022/06/11 04:09:53;;;;;;;5.2;3.5;;;;;;;10;93.67969;945.1891;;;;
2022/06/11 04:12:18;;;;;;;4.9;3.2;;;;;;;9.87;93.94922;945.1686;;;;
2022/06/11 04:14:43;;;;;;;5.3;3.1;;;;;;;9.79;95.02539;945.2619;;;;
2022/06/11 04:17:11;;;;;;;5.2;3.1;;;;;;;9.87;95.15723;945.2911;;;;
2022/06/11 04:19:37;;;;;;;4.2;3;;;;;;;10;94.69434;945.3273;;;;
2022/06/11 04:22:02;;;;;;;3.1;2.7;;;;;;;10.1;93.90625;945.2686;;;;
2022/06/11 04:24:28;;;;;;;4.4;2.8;;;;;;;10.22;93.07813;945.3437;;;;
2022/06/11 04:26:56;;;;;;;3.1;2.7;;;;;;;10.28;92.25684;945.3695;;;;
2022/06/11 04:29:21;;;;;;;4.4;2.9;;;;;;;10.31;91.72852;945.3473;;;;
2022/06/11 04:31:46;;;;;;;5.6;3;;;;;;;10.11;92.65234;945.3325;;;;
2022/06/11 04:34:11;;;;;;;4.4;3.1;;;;;;;10.14;93.08203;945.3411;;;;
2022/06/11 04:36:36;;;;;;;5.3;3;;;;;;;10.24;92.36328;945.3416;;;;
2022/06/11 04:39:01;;;;;;;3;2.7;;;;;;;10.13;92.6123;945.396;;;;
2022/06/11 04:41:26;;;;;;;4.3;3;;;;;;;10.16;92.9375;945.4275;;;;
2022/06/11 04:43:51;;;;;;;3.7;3.2;;;;;;;10.16;92.80273;945.3672;;;;
2022/06/11 04:46:18;;;;;;;6;3;;;;;;;10.21;92.7666;945.3499;;;;
2022/06/11 04:48:44;;;;;;;5.9;2.7;;;;;;;10.28;92.48535;945.337;;;;
2022/06/11 04:51:09;;;;;;;3.9;3;;;;;;;10.24;92.6123;945.3297;;;;
2022/06/11 04:53:34;;;;;;;5.8;2.9;;;;;;;10.22;93.11035;945.338;;;;
2022/06/11 04:55:59;;;;;;;5.8;2.9;;;;;;;10.43;92.24219;945.3053;;;;
2022/06/11 04:58:25;;;;;;;5.5;3.1;;;;;;;10.48;92.08301;945.3033;;;;
2022/06/11 05:00:50;;;;;;;4.9;3.5;;;;;;;10.61;92.17773;945.3242;;;;
2022/06/11 05:03:18;;;;;;;4.3;3.4;;;;;;;11.88;90.47949;945.2467;;;;
2022/06/11 05:05:43;;;;;;;6.5;3.7;;;;;;;13.7;80.57617;945.1571;;;;
2022/06/11 05:08:08;;;;;;;5.3;2.8;;;;;;;15.33;72.73926;945.1508;;;;
2022/06/11 05:10:34;;;;;;;4.5;2.9;;;;;;;16.88;67.39063;945.176;;;;
2022/06/11 05:12:59;;;;;;;4.2;3;;;;;;;18.28;63.24707;945.2297;;;;
2022/06/11 05:15:24;;;;;;;2.9;2.2;;;;;;;18.96;59.57422;945.2125;;;;
2022/06/11 05:17:50;;;;;;;2.1;1.9;;;;;;;19.32;60.4375;945.2492;;;;
2022/06/11 05:20:15;;;;;;;1.7;1.6;;;;;;;19.27;56.23828;945.2191;;;;
2022/06/11 05:22:42;;;;;;;2.3;1.4;;;;;;;18.29;59.44824;945.1749;;;;
2022/06/11 05:25:07;;;;;;;1.7;1.5;;;;;;;18.34;60.19824;945.2204;;;;
2022/06/11 05:27:34;;;;;;;1.5;1.4;;;;;;;19.7;57.78418;945.1422;;;;
2022/06/11 05:30:00;;;;;;;1.6;1.5;;;;;;;20.91;55.50098;945.1379;;;;
2022/06/11 05:32:26;;;;;;;1.4;1.3;;;;;;;21.52;50.89355;945.1242;;;;
2022/06/11 05:34:50;;;;;;;2.4;1.4;;;;;;;22.68;48.32617;945.1398;;;;
2022/06/11 05:37:16;;;;;;;2.4;1.5;;;;;;;22.04;48.43359;945.0922;;;;
2022/06/11 05:39:41;;;;;;;2.5;1.3;;;;;;;22.59;49.53809;945.0581;;;;
2022/06/11 05:42:08;;;;;;;1.3;1.2;;;;;;;23.02;47.7168;945.0792;;;;
2022/06/11 05:44:33;;;;;;;1.6;1.5;;;;;;;23.23;46.39941;945.1064;;;;
2022/06/11 05:46:59;;;;;;;1.7;1.5;;;;;;;23.75;47.06641;945.0552;;;;
2022/06/11 05:49:24;;;;;;;1.5;1.4;;;;;;;23.04;46.69727;945.0673;;;;
2022/06/11 05:51:49;;;;;;;1.5;1.4;;;;;;;22.8;48.65723;945.0812;;;;
2022/06/11 05:54:14;;;;;;;2.5;1.3;;;;;;;23.98;45.68945;944.9492;;;;
2022/06/11 05:56:39;;;;;;;2.3;1.5;;;;;;;23.06;48.49707;945.01;;;;
2022/06/11 05:59:04;;;;;;;2.1;1.4;;;;;;;24.51;45.4834;944.9883;;;;
2022/06/11 06:01:30;;;;;;;2.1;1.3;;;;;;;24.64;44.11914;944.998;;;;
2022/06/11 06:03:55;;;;;;;2.1;1.5;;;;;;;25.89;41.51074;944.9813;;;;
2022/06/11 06:07:29;;;;;;;1.4;1.3;;;;;;;24.94;41.77637;944.9373;;;;
2022/06/11 06:09:55;;;;;;;1.5;1.3;;;;;;;24.35;42.27539;944.9802;;;;
2022/06/11 06:12:20;;;;;;;1.3;1.2;;;;;;;24.63;42.84473;944.885;;;;
2022/06/11 06:14:46;;;;;;;1.5;1.2;;;;;;;25.69;41.8457;944.8663;;;;
2022/06/11 06:17:11;;;;;;;1.4;1.3;;;;;;;25.9;41.77148;944.8722;;;;
2022/06/11 06:19:36;;;;;;;1.3;1.2;;;;;;;26.65;40.16016;944.8375;;;;
2022/06/11 06:22:04;;;;;;;1.3;1.2;;;;;;;28.16;37.63281;944.8286;;;;
2022/06/11 06:24:38;;;;;;;1.3;1.2;;;;;;;27.67;37.75781;944.8833;;;;
2022/06/11 06:27:03;;;;;;;1.1;1;;;;;;;28.01;37.51367;944.8318;;;;
2022/06/11 06:29:28;;;;;;;1.3;1.2;;;;;;;27.96;37.67578;944.814;;;;
2022/06/11 06:31:53;;;;;;;1.3;1.2;;;;;;;28.86;36.26367;944.8246;;;;
2022/06/11 06:34:18;;;;;;;1.6;1.4;;;;;;;28.73;35.45605;944.7841;;;;
2022/06/11 06:36:45;;;;;;;2.4;1.3;;;;;;;29.39;34.85254;944.8131;;;;
2022/06/11 06:39:10;;;;;;;1.2;1.1;;;;;;;28.49;35.94824;944.8113;;;;
2022/06/11 06:42:24;;;;;;;2.3;1.4;;;;;;;29.3;34.16602;944.7796;;;;
2022/06/11 06:44:49;;;;;;;1.1;1;;;;;;;28.18;35.75781;944.8248;;;;
2022/06/11 06:47:18;;;;;;;1.3;1.2;;;;;;;27.17;39.0791;944.8851;;;;
2022/06/11 06:49:43;;;;;;;2.1;1.3;;;;;;;26.94;37.91016;944.8652;;;;
2022/06/11 06:52:08;;;;;;;1.5;1.3;;;;;;;26.05;40.36621;944.8517;;;;
2022/06/11 06:54:33;;;;;;;1.5;1.4;;;;;;;28.36;37.81641;944.8687;;;;
2022/06/11 06:57:01;;;;;;;1.4;1.3;;;;;;;30.19;33.39844;944.8054;;;;
2022/06/11 06:59:26;;;;;;;1.3;1.2;;;;;;;29.87;31.95508;944.7808;;;;
2022/06/11 07:01:51;;;;;;;1.7;1.1;;;;;;;28.39;35.72656;944.702;;;;
2022/06/11 07:04:16;;;;;;;1.2;1.1;;;;;;;28.87;34.32422;944.7236;;;;
2022/06/11 07:06:43;;;;;;;1.9;1.3;;;;;;;30.73;32.94824;944.7198;;;;
2022/06/11 07:09:08;;;;;;;1.2;1.1;;;;;;;29.79;32.40332;944.7233;;;;
2022/06/11 07:11:34;;;;;;;1.3;1.2;;;;;;;29.37;32.14648;944.724;;;;
2022/06/11 07:14:00;;;;;;;1.5;1.2;;;;;;;31.53;30.71973;944.7556;;;;
2022/06/11 07:16:25;;;;;;;2.1;1.3;;;;;;;29.94;31.51855;944.6973;;;;
2022/06/11 07:18:50;;;;;;;2.4;1.4;;;;;;;30.98;31.10059;944.7148;;;;
2022/06/11 07:21:16;;;;;;;2.5;1.5;;;;;;;32.08;29.88184;944.7209;;;;
2022/06/11 07:23:41;;;;;;;1.3;1.2;;;;;;;30.57;30.82227;944.7177;;;;
2022/06/11 07:26:06;;;;;;;1.2;1.1;;;;;;;31.37;31.27148;944.7159;;;;
2022/06/11 07:28:31;;;;;;;1.4;1.3;;;;;;;31.54;30.56543;944.6947;;;;
2022/06/11 07:30:56;;;;;;;1.3;1.2;;;;;;;31.75;31.12988;944.6834;;;;
2022/06/11 07:33:21;;;;;;;1.3;1.2;;;;;;;32.15;30.72559;944.597;;;;
2022/06/11 07:35:48;;;;;;;1.8;1.4;;;;;;;29.6;33.67578;944.6082;;;;
2022/06/11 07:38:13;;;;;;;2.8;1.2;;;;;;;29.06;36.62402;944.6033;;;;
2022/06/11 07:40:38;;;;;;;1.4;1.2;;;;;;;30.58;33.6416;944.5993;;;;
2022/06/11 07:43:04;;;;;;;1.3;1.2;;;;;;;27.74;39.36719;944.5892;;;;
2022/06/11 07:45:29;;;;;;;1.9;1.4;;;;;;;29.43;37.62012;944.5477;;;;
2022/06/11 07:47:57;;;;;;;2.1;1.3;;;;;;;31.81;33.13379;944.5715;;;;
2022/06/11 07:50:19;;;;;;;1.3;1.2;;;;;;;32.98;30.60156;944.5558;;;;
2022/06/11 07:52:44;;;;;;;1.4;1.3;;;;;;;32.56;30.80176;944.5467;;;;
2022/06/11 07:55:09;;;;;;;1.1;1.1;;;;;;;31.4;33.14063;944.5678;;;;
2022/06/11 07:57:34;;;;;;;2.1;1.3;;;;;;;31.57;30.61523;944.5254;;;;
2022/06/11 07:59:59;;;;;;;1.7;1.2;;;;;;;30.75;35.72266;944.5421;;;;
2022/06/11 08:02:27;;;;;;;1.4;1.3;;;;;;;29.96;34.9209;944.475;;;;
2022/06/11 08:04:52;;;;;;;1.2;1.1;;;;;;;31.22;33.36621;944.5591;;;;
2022/06/11 08:07:21;;;;;;;1.5;1.2;;;;;;;31.5;33.71094;944.5477;;;;
2022/06/11 08:09:46;;;;;;;1.2;1.1;;;;;;;32.16;32.18945;944.4545;;;;
2022/06/11 08:12:11;;;;;;;1.9;1.1;;;;;;;30.88;34.10645;944.5061;;;;
2022/06/11 08:14:36;;;;;;;1.3;1.1;;;;;;;31.79;31.24023;944.5264;;;;
2022/06/11 08:17:01;;;;;;;1.8;1.2;;;;;;;32.92;29.2168;944.5011;;;;
2022/06/11 08:19:26;;;;;;;1.3;1.2;;;;;;;32.74;30.89844;944.5209;;;;
2022/06/11 08:21:51;;;;;;;1.5;0.9;;;;;;;31.97;30.82129;944.4849;;;;
2022/06/11 08:24:18;;;;;;;0.9;0.9;;;;;;;32;30.71582;944.5228;;;;
2022/06/11 08:26:43;;;;;;;1.3;1;;;;;;;31.06;32.93652;944.5289;;;;
2022/06/11 08:29:08;;;;;;;1.9;1.1;;;;;;;32.72;29.66016;944.5222;;;;
2022/06/11 08:31:33;;;;;;;1.2;0.9;;;;;;;31.68;30.76563;944.5756;;;;
2022/06/11 08:33:58;;;;;;;1.2;1.1;;;;;;;33.06;28.78125;944.5478;;;;
2022/06/11 08:36:23;;;;;;;1.2;0.9;;;;;;;30.55;33.46094;944.6061;;;;
2022/06/11 08:38:49;;;;;;;0.9;0.9;;;;;;;33.54;27.88477;944.5048;;;;
2022/06/11 08:41:14;;;;;;;1.7;1;;;;;;;32.67;28.73242;944.5587;;;;
2022/06/11 08:43:42;;;;;;;1;0.9;;;;;;;32.46;29.81152;944.5426;;;;
2022/06/11 08:46:07;;;;;;;1.4;1.1;;;;;;;32.28;29.53613;944.5583;;;;
2022/06/11 08:48:34;;;;;;;1.8;0.9;;;;;;;31.25;30.3291;944.5084;;;;
2022/06/11 08:51:00;;;;;;;1.2;0.9;;;;;;;32.59;27.82813;944.4889;;;;
2022/06/11 08:53:25;;;;;;;1.8;1.3;;;;;;;28.35;34.1416;944.411;;;;
2022/06/11 08:55:50;;;;;;;1.3;1.2;;;;;;;28.53;37.06934;944.4241;;;;
2022/06/11 08:58:15;;;;;;;1.2;1.1;;;;;;;27.87;35.96973;944.355;;;;
2022/06/11 09:00:40;;;;;;;1.5;1;;;;;;;28.15;36.55078;944.3547;;;;
2022/06/11 09:03:08;;;;;;;1.8;1.3;;;;;;;28.93;36.44727;944.3954;;;;
2022/06/11 09:05:33;;;;;;;2;1.2;;;;;;;27.95;38.29297;944.2986;;;;
2022/06/11 09:07:58;;;;;;;4.6;1.4;;;;;;;27.77;38.91797;944.3644;;;;
2022/06/11 09:10:23;;;;;;;2.3;1.2;;;;;;;30.01;34.30273;944.3436;;;;
2022/06/11 09:12:48;;;;;;;1.1;1;;;;;;;30.75;31.25293;944.3956;;;;
2022/06/11 09:15:14;;;;;;;1.6;1.3;;;;;;;30.66;31.3291;944.3833;;;;
2022/06/11 09:17:40;;;;;;;3.3;1.5;;;;;;;31.08;30.67676;944.4194;;;;
2022/06/11 09:20:05;;;;;;;3.2;1.3;;;;;;;30.84;33.06348;944.3773;;;;
2022/06/11 09:22:30;;;;;;;1.2;1.1;;;;;;;29.47;35.27539;944.3498;;;;
2022/06/11 09:24:55;;;;;;;1.1;1;;;;;;;30.62;34.33789;944.316;;;;
2022/06/11 09:27:20;;;;;;;1.1;1.1;;;;;;;28.81;37.50879;944.2791;;;;
2022/06/11 09:29:45;;;;;;;1.7;1;;;;;;;29.74;32.92383;944.3089;;;;
2022/06/11 09:32:10;;;;;;;1.1;1;;;;;;;29.67;34.30176;944.2842;;;;
2022/06/11 09:34:36;;;;;;;1.6;1.1;;;;;;;29.23;34.36328;944.243;;;;
2022/06/11 09:37:00;;;;;;;1.7;0.9;;;;;;;29.25;36.17578;944.2957;;;;
2022/06/11 09:39:26;;;;;;;1.8;1.1;;;;;;;29.26;34.77051;944.2896;;;;
2022/06/11 09:41:51;;;;;;;1.6;1.4;;;;;;;29.76;33.34277;944.2365;;;;
2022/06/11 09:44:16;;;;;;;1.4;1.1;;;;;;;29.08;36.43555;944.2305;;;;
2022/06/11 09:46:41;;;;;;;1.1;1;;;;;;;29.18;36.01563;944.2028;;;;
2022/06/11 09:49:08;;;;;;;1.2;0.9;;;;;;;28.29;36.53809;944.1847;;;;
2022/06/11 09:51:34;;;;;;;1.4;1.1;;;;;;;27.57;37.5127;944.2137;;;;
2022/06/11 09:53:58;;;;;;;1.1;1.1;;;;;;;28.49;37.01855;944.2206;;;;
2022/06/11 09:56:25;;;;;;;1.1;1;;;;;;;27.06;39.60352;944.2252;;;;
2022/06/11 09:58:50;;;;;;;1;1;;;;;;;27.5;38.77637;944.2126;;;;
2022/06/11 10:01:16;;;;;;;2.1;1.2;;;;;;;27.15;39.83691;944.1541;;;;
2022/06/11 10:03:41;;;;;;;1.3;1.2;;;;;;;26.79;40.68164;944.1685;;;;
2022/06/11 10:06:07;;;;;;;1.3;1.2;;;;;;;26.53;40.68164;944.1771;;;;
2022/06/11 10:08:32;;;;;;;1.2;1.1;;;;;;;26.68;40.32813;944.1594;;;;
2022/06/11 10:10:58;;;;;;;1.3;1.1;;;;;;;26.22;41.49414;944.1696;;;;
2022/06/11 10:13:23;;;;;;;1.2;1.1;;;;;;;26.35;38.77246;944.1494;;;;
2022/06/11 10:15:48;;;;;;;1.7;1.2;;;;;;;26.27;39.03613;944.1453;;;;
2022/06/11 10:18:13;;;;;;;1.7;1.3;;;;;;;25.35;44.02344;944.1281;;;;
2022/06/11 10:20:38;;;;;;;1.8;1.2;;;;;;;25.61;42.4541;944.1166;;;;
2022/06/11 10:23:03;;;;;;;2.4;1.1;;;;;;;25.87;39.48633;944.1928;;;;
2022/06/11 10:25:30;;;;;;;1.7;1.3;;;;;;;26.14;39.4043;944.1053;;;;
2022/06/11 10:27:55;;;;;;;1.1;0.9;;;;;;;26.42;39.93848;944.0793;;;;
2022/06/11 10:30:20;;;;;;;1.1;1;;;;;;;26.64;40.28906;944.1289;;;;
2022/06/11 10:32:46;;;;;;;1.3;1.1;;;;;;;26.53;41.15527;944.1033;;;;
2022/06/11 10:35:10;;;;;;;1.7;1.2;;;;;;;26.42;41.23926;944.0583;;;;
2022/06/11 10:37:36;;;;;;;1.1;1.1;;;;;;;26.01;40.64551;944.0641;;;;
2022/06/11 10:40:01;;;;;;;1.5;1.1;;;;;;;25.69;43.09863;944.0572;;;;
2022/06/11 10:42:26;;;;;;;1;0.9;;;;;;;25.6;42.70117;944.1153;;;;
2022/06/11 10:44:51;;;;;;;1.2;1.1;;;;;;;25.78;41.88965;944.033;;;;
2022/06/11 10:47:19;;;;;;;1.5;1.1;;;;;;;25.63;40.35254;944.0899;;;;
2022/06/11 10:49:44;;;;;;;1.5;1.4;;;;;;;25.93;39.75293;944.0506;;;;
2022/06/11 10:52:10;;;;;;;1.4;1;;;;;;;25.86;41.4248;944.0897;;;;
2022/06/11 10:54:35;;;;;;;1.2;1.1;;;;;;;25.78;42.48047;944.0438;;;;
2022/06/11 11:00:37;;;;;;;1.3;1.1;;;;;;;24.82;45.75195;943.9797;;;;
2022/06/11 11:03:02;;;;;;;1.2;1.1;;;;;;;25.12;43.74121;943.9988;;;;
2022/06/11 11:05:27;;;;;;;1.2;1.1;;;;;;;25.5;42.34766;943.9335;;;;
2022/06/11 11:07:52;;;;;;;1.7;1;;;;;;;25.48;40.74023;943.923;;;;
2022/06/11 11:10:19;;;;;;;1.2;1.1;;;;;;;25.62;42.46582;943.9296;;;;
2022/06/11 11:12:44;;;;;;;2.3;1.1;;;;;;;25.99;40.16016;943.9341;;;;
2022/06/11 11:15:10;;;;;;;1.3;1.1;;;;;;;26.2;38.52246;943.9035;;;;
2022/06/11 11:17:36;;;;;;;2.9;1.2;;;;;;;26.36;39.58887;943.904;;;;
2022/06/11 11:22:26;;;;;;;2.2;1.3;;;;;;;26.34;40.00098;943.8898;;;;
2022/06/11 11:24:51;;;;;;;1.7;1.2;;;;;;;26.6;39.06543;943.8383;;;;
2022/06/11 11:27:16;;;;;;;1.5;1;;;;;;;26.86;39.55078;943.8191;;;;
2022/06/11 11:29:42;;;;;;;1.4;1.3;;;;;;;26.58;41.68066;943.8278;;;;
2022/06/11 11:32:08;;;;;;;1;1;;;;;;;26.16;44.3623;943.7592;;;;
2022/06/11 11:34:36;;;;;;;1.2;1;;;;;;;26.39;40.84668;943.8135;;;;
2022/06/11 11:37:01;;;;;;;2.5;1.3;;;;;;;26.29;43.41602;943.7981;;;;
2022/06/11 11:39:26;;;;;;;1.8;1.1;;;;;;;26.4;42.10156;943.7935;;;;
2022/06/11 11:41:51;;;;;;;1.4;1.3;;;;;;;26.16;41.22754;943.7494;;;;
2022/06/11 11:44:16;;;;;;;2;1.3;;;;;;;26.5;40.58398;943.7497;;;;
2022/06/11 11:46:42;;;;;;;1.9;1.2;;;;;;;26.8;40.58691;943.7864;;;;
2022/06/11 11:49:08;;;;;;;1.2;1.1;;;;;;;26.87;39.58691;943.741;;;;
2022/06/11 11:51:32;;;;;;;1.4;1.3;;;;;;;26.25;44.47754;943.6758;;;;
2022/06/11 11:53:59;;;;;;;1.7;1.3;;;;;;;26.73;39.16016;943.6432;;;;
2022/06/11 11:56:24;;;;;;;2;1.2;;;;;;;26.79;39.53223;943.6528;;;;
2022/06/11 11:58:51;;;;;;;2.1;1.4;;;;;;;26.65;40.19629;943.6286;;;;
2022/06/11 12:01:17;;;;;;;3.7;1.5;;;;;;;26.81;40.75488;943.606;;;;
2022/06/11 12:03:42;;;;;;;1.6;1.3;;;;;;;26.69;41.82129;943.6312;;;;
2022/06/11 12:06:47;;;;;;;4.7;1.6;;;;;;;26.83;40.61426;943.6504;;;;
2022/06/11 12:09:12;;;;;;;1.3;1.2;;;;;;;26.63;39.21094;943.6108;;;;
2022/06/11 12:11:38;;;;;;;2.4;1.6;;;;;;;26.83;40.16406;943.5686;;;;
2022/06/11 12:14:03;;;;;;;2;1.1;;;;;;;26.56;40.82617;943.5623;;;;
2022/06/11 12:16:29;;;;;;;2.1;1.2;;;;;;;26.44;39.75098;943.5496;;;;
2022/06/11 12:18:54;;;;;;;2.2;1.3;;;;;;;26.25;40.43066;943.5848;;;;
2022/06/11 12:21:19;;;;;;;4.8;1.7;;;;;;;26;42.1123;943.5859;;;;
2022/06/11 12:23:44;;;;;;;3.5;1.4;;;;;;;26.33;40.37891;943.6021;;;;
2022/06/11 12:26:09;;;;;;;3.7;1.3;;;;;;;26.05;42.61328;943.5745;;;;
2022/06/11 12:28:34;;;;;;;4.2;1.2;;;;;;;26.38;41.70996;943.5826;;;;
2022/06/11 12:30:59;;;;;;;7.3;1.8;;;;;;;26.57;41.49023;943.5472;;;;
2022/06/11 12:33:37;;;;;;;1.3;1.2;;;;;;;26.7;40.29492;943.6119;;;;
2022/06/11 12:36:03;;;;;;;1.4;1.3;;;;;;;26.62;42.62012;943.6119;;;;
2022/06/11 12:38:28;;;;;;;2.2;1.3;;;;;;;26.32;41.90625;943.6308;;;;
2022/06/11 12:40:53;;;;;;;1.2;1.1;;;;;;;26.14;40.45801;943.5894;;;;
2022/06/11 12:43:19;;;;;;;2.2;1.4;;;;;;;26.1;41.70703;943.6549;;;;
2022/06/11 12:45:43;;;;;;;1.3;1.2;;;;;;;26.32;43.38477;943.6483;;;;
2022/06/11 12:48:08;;;;;;;1.4;1.1;;;;;;;25.67;42.69531;943.5533;;;;
2022/06/11 12:55:40;;;;;;;1.7;1.4;;;;;;;25.92;43.10938;943.5231;;;;
2022/06/11 12:58:05;;;;;;;1.5;1.4;;;;;;;25.75;43.05762;943.4869;;;;
2022/06/11 13:00:30;;;;;;;1.8;1.3;;;;;;;26.16;41.14551;943.514;;;;
2022/06/11 13:02:58;;;;;;;2.3;1.2;;;;;;;26.05;42.79102;943.4983;;;;
2022/06/11 13:05:23;;;;;;;1.3;1.2;;;;;;;26.31;40.73242;943.4459;;;;
2022/06/11 13:07:49;;;;;;;1.7;1.2;;;;;;;26.21;41.8125;943.4688;;;;
2022/06/11 13:10:14;;;;;;;1.4;1.3;;;;;;;26.33;39.58594;943.5048;;;;
2022/06/11 13:12:42;;;;;;;1.2;1.1;;;;;;;26.3;39.42969;943.5378;;;;
2022/06/11 13:15:06;;;;;;;4.1;1.2;;;;;;;25.45;40.26465;943.5041;;;;
2022/06/11 13:17:33;;;;;;;1;1;;;;;;;25.59;42.22656;943.5377;;;;
2022/06/11 13:19:58;;;;;;;1.3;1.2;;;;;;;25.57;41.8457;943.3117;;;;
2022/06/11 13:22:23;;;;;;;1.3;1.1;;;;;;;25.5;42.25391;943.4507;;;;
2022/06/11 13:24:48;;;;;;;1.8;1.2;;;;;;;25.53;42.96484;943.3558;;;;
2022/06/11 13:27:13;;;;;;;1.3;1.2;;;;;;;25.61;43.08008;943.3563;;;;
2022/06/11 13:29:38;;;;;;;3.3;1.2;;;;;;;25.86;40.12402;943.3781;;;;
2022/06/11 13:32:03;;;;;;;1.1;1.1;;;;;;;25.57;42.94531;943.2479;;;;
2022/06/11 13:34:28;;;;;;;2.1;1;;;;;;;25.25;42.4668;943.28;;;;
2022/06/11 13:36:54;;;;;;;1.5;1.2;;;;;;;25.28;43.82715;943.2993;;;;
2022/06/11 13:39:19;;;;;;;1.3;1.2;;;;;;;25.24;42.31152;943.2781;;;;
2022/06/11 13:41:46;;;;;;;1.3;1.2;;;;;;;25.37;42.0293;943.3061;;;;
2022/06/11 13:44:12;;;;;;;1.7;1.3;;;;;;;25.27;43.49609;943.2473;;;;
2022/06/11 13:46:37;;;;;;;2.9;1.6;;;;;;;25.46;45.02539;943.2631;;;;
2022/06/11 13:49:02;;;;;;;1.5;1.3;;;;;;;25.68;42.31836;943.2603;;;;
2022/06/11 13:51:27;;;;;;;1.3;1.3;;;;;;;25.71;43.08984;943.2313;;;;
2022/06/11 13:56:17;;;;;;;1.1;1.1;;;;;;;25.71;43.24316;943.1735;;;;
2022/06/11 13:58:42;;;;;;;1.6;1.4;;;;;;;25.48;43.59863;943.2525;;;;
2022/06/11 14:01:07;;;;;;;1.4;1.3;;;;;;;25.69;40.62891;943.2036;;;;
2022/06/11 14:03:33;;;;;;;1.2;1.1;;;;;;;25.93;42.02246;943.2592;;;;
2022/06/11 14:05:58;;;;;;;1.3;1.2;;;;;;;25.96;41.25684;943.222;;;;
2022/06/11 14:08:23;;;;;;;1.9;1.7;;;;;;;25.75;41.5332;943.2095;;;;
2022/06/11 14:10:48;;;;;;;1.4;1.3;;;;;;;25.39;43.1416;943.2026;;;;
2022/06/11 14:13:13;;;;;;;1.3;1.2;;;;;;;25.41;42.80078;943.2197;;;;
2022/06/11 14:15:39;;;;;;;1.3;1.2;;;;;;;25.58;41.63574;943.2344;;;;
2022/06/11 14:18:04;;;;;;;1.4;1.3;;;;;;;25.69;40.47559;943.2141;;;;
2022/06/11 14:20:29;;;;;;;1.4;1.3;;;;;;;25.35;42.74707;943.2869;;;;
2022/06/11 14:22:58;;;;;;;1.3;1.2;;;;;;;25.29;43.79199;943.2223;;;;
2022/06/11 14:25:25;;;;;;;3.2;1.4;;;;;;;24.91;42.61133;943.1636;;;;
2022/06/11 14:27:48;;;;;;;1.5;1.4;;;;;;;25.04;42.78809;943.1935;;;;
2022/06/11 14:30:41;;;;;;;1.5;1.3;;;;;;;25.25;43.54102;943.2539;;;;
2022/06/11 14:33:06;;;;;;;1.5;1.3;;;;;;;24.76;44.93164;943.1993;;;;
2022/06/11 14:35:34;;;;;;;1.3;1.2;;;;;;;24.78;44.27344;943.1975;;;;
2022/06/11 14:37:58;;;;;;;1.4;1.3;;;;;;;24.84;43.91309;943.2438;;;;
2022/06/11 14:40:25;;;;;;;2.5;1.4;;;;;;;24.86;43.34863;943.1616;;;;
2022/06/11 14:42:50;;;;;;;2.8;1.7;;;;;;;24.68;43.48438;943.1794;;;;
2022/06/11 14:45:15;;;;;;;1.1;1.1;;;;;;;24.58;44.20703;943.1192;;;;
2022/06/11 14:47:40;;;;;;;2.7;1.4;;;;;;;24.54;45.29883;943.1434;;;;
2022/06/11 14:50:05;;;;;;;1.5;1.3;;;;;;;24.56;43.34375;943.1331;;;;
2022/06/11 14:52:31;;;;;;;1.7;1.2;;;;;;;24.37;43.6084;943.1167;;;;
2022/06/11 14:54:56;;;;;;;1.3;1.2;;;;;;;24.27;45.01172;943.1936;;;;
2022/06/11 14:57:40;;;;;;;1.6;1.4;;;;;;;24.46;43.79492;943.1277;;;;
2022/06/11 15:00:05;;;;;;;1.3;1.2;;;;;;;24.69;43.48633;943.2;;;;
2022/06/11 15:02:30;;;;;;;1.3;1.2;;;;;;;24.73;44.18555;943.1847;;;;
2022/06/11 15:04:55;;;;;;;1.7;1.3;;;;;;;24.7;44.7832;943.0906;;;;
2022/06/11 15:07:21;;;;;;;3.4;1.3;;;;;;;24.66;42.26855;943.1508;;;;
2022/06/11 15:09:46;;;;;;;1.5;1.4;;;;;;;24.37;45.0459;943.0844;;;;
2022/06/11 15:12:12;;;;;;;1.4;1.3;;;;;;;24.51;43.79883;943.0836;;;;
2022/06/11 15:14:37;;;;;;;2.1;1.2;;;;;;;24.57;43.75781;943.1186;;;;
2022/06/11 15:17:02;;;;;;;1.9;1.6;;;;;;;24.72;43.39453;943.1264;;;;
2022/06/11 15:19:28;;;;;;;1.6;1.2;;;;;;;24.7;42.51953;943.1542;;;;
2022/06/11 15:21:54;;;;;;;3;1.3;;;;;;;24.49;45.03418;943.1813;;;;
2022/06/11 15:24:19;;;;;;;2;1.4;;;;;;;24.3;45.81641;943.0998;;;;
2022/06/11 15:26:43;;;;;;;3;1.5;;;;;;;24.24;45.19727;943.1107;;;;
2022/06/11 15:29:08;;;;;;;1.8;1.5;;;;;;;24.26;43.17285;943.0497;;;;
2022/06/11 15:31:34;;;;;;;1.5;1.4;;;;;;;24.26;44.25684;943.0993;;;;
2022/06/11 15:33:59;;;;;;;1.3;1.2;;;;;;;24.18;46.03906;943.0842;;;;
2022/06/11 15:36:27;;;;;;;1.1;1.1;;;;;;;24.29;45.95605;943.0987;;;;
2022/06/11 15:38:51;;;;;;;1.2;1.1;;;;;;;24.41;45.03809;943.1364;;;;
2022/06/11 15:41:16;;;;;;;1.6;1.3;;;;;;;24.3;44.19043;942.9656;;;;
2022/06/11 15:43:42;;;;;;;1.6;1.5;;;;;;;24.44;43.93359;943.0871;;;;
2022/06/11 15:46:07;;;;;;;1.5;1.4;;;;;;;24.56;43.93359;943.1044;;;;
2022/06/11 15:48:35;;;;;;;2.5;1.5;;;;;;;24.47;43.02832;943.0834;;;;
2022/06/11 15:51:00;;;;;;;2.4;1.4;;;;;;;24.19;43.86133;943.0641;;;;